To NAV CANADA Home Page Login to a new session Search on AWWS site Disclaimer Vers la page française équivalente Tips FAQ What's new on the site To the Forecasts and Observations / NOTAM section To "File a Flight Plan" website Publications and other links Update of the User's profile FIC Telephone Numbers My Weather Data Folder Route Weather Data Regional Weather Data Local Weather Data To the Forecasts and Observations / NOTAM section
Request Generated 10/19/2018 at 15:27:07 UTC . Weather information available at that time is displayed.

METAR/TAF

MUSKRAT DAM/ON    (show WxCam)

SPECI CZMD 191517Z AUTO 29010G18KT 270V330 9SM OVC010 00/M01 A2952 RMK SLP014=
METAR CZMD 191500Z AUTO 31009KT 270V330 9SM OVC008 00/M01 A2952 RMK SLP013=
METAR CZMD 191400Z AUTO 30005G15KT 280V340 9SM OVC008 01/M00 A2952 RMK SLP012=
METAR CZMD 191300Z AUTO 31006KT 270V340 9SM OVC006 01/M00 A2950 RMK SLP008=

TAF AMD CZMD 191107Z 1911/1922 32010KT 6SM -RA BR SCT006 OVC015 TEMPO
1911/1918 2SM -SNRA BR BKN006 OVC015
FM191800 30015G25KT 11/2SM -SN OVC015
FM192100 32015G25KT 6SM -SHSN BKN025
RMK FCST BASED ON AUTO OBS. NXT FCST BY 191600Z=
Your time UTC time
Weather data provided by Environment Canada and NAV CANADA